createdAt,value
2018-07-27T00:00:19.594Z,6.60
2018-07-27T00:01:19.788Z,7.40
2018-07-27T00:02:19.976Z,6.60
2018-07-27T00:03:20.160Z,7.00
2018-07-27T00:04:20.355Z,7.30
2018-07-27T00:05:20.546Z,7.20
2018-07-27T00:06:20.718Z,9.10
2018-07-27T00:07:20.904Z,7.30
2018-07-27T00:08:21.081Z,7.70
2018-07-27T00:09:21.261Z,8.10
2018-07-27T00:10:21.436Z,7.60
2018-07-27T00:11:21.625Z,6.60
2018-07-27T00:12:21.810Z,8.20
2018-07-27T00:13:22.003Z,6.80
2018-07-27T00:15:22.372Z,6.70
2018-07-27T00:16:22.557Z,6.80
2018-07-27T00:17:22.740Z,8.20
2018-07-27T00:18:22.914Z,6.90
2018-07-27T00:19:23.097Z,7.90
2018-07-27T00:20:23.279Z,7.40
2018-07-27T00:21:23.457Z,8.60
2018-07-27T00:22:23.633Z,8.60
2018-07-27T00:23:23.822Z,6.80
2018-07-27T00:24:24.007Z,7.00
2018-07-27T00:25:24.185Z,7.90
2018-07-27T00:26:24.374Z,9.20
2018-07-27T00:27:24.565Z,8.80
2018-07-27T00:28:24.759Z,7.20
2018-07-27T00:29:24.938Z,7.00
2018-07-27T00:30:25.126Z,6.60
2018-07-27T00:31:25.302Z,9.70
2018-07-27T00:32:25.495Z,6.80
2018-07-27T00:33:25.683Z,7.60
2018-07-27T00:34:25.871Z,7.30
2018-07-27T00:35:26.061Z,9.20
2018-07-27T00:36:26.246Z,7.10
2018-07-27T00:37:26.428Z,7.50
2018-07-27T00:38:26.614Z,6.60
2018-07-27T00:39:26.804Z,7.10
2018-07-27T00:40:26.983Z,7.80
2018-07-27T00:41:27.175Z,7.10
2018-07-27T00:42:27.352Z,6.90
2018-07-27T00:43:27.544Z,7.30
2018-07-27T00:44:27.732Z,7.30
2018-07-27T00:45:27.915Z,7.10
2018-07-27T00:46:28.097Z,7.70
2018-07-27T00:47:28.293Z,7.10
2018-07-27T00:48:28.474Z,9.30
2018-07-27T00:49:28.656Z,7.00
2018-07-27T00:50:28.844Z,7.20
2018-07-27T00:51:29.070Z,8.00
2018-07-27T00:52:29.210Z,6.90
2018-07-27T00:53:29.399Z,8.60
2018-07-27T00:54:29.592Z,8.00
2018-07-27T00:55:29.766Z,6.60
2018-07-27T00:56:29.954Z,8.00
2018-07-27T00:57:30.144Z,7.60
2018-07-27T00:58:30.333Z,8.20
2018-07-27T00:59:30.521Z,7.70
2018-07-27T01:00:30.700Z,8.30
2018-07-27T01:01:30.890Z,5.90
2018-07-27T01:02:31.078Z,8.50
2018-07-27T01:03:31.252Z,8.80
2018-07-27T01:04:31.441Z,6.40
2018-07-27T01:05:31.628Z,8.10
2018-07-27T01:06:32.049Z,7.40
2018-07-27T01:07:32.002Z,7.40
2018-07-27T01:08:32.184Z,7.60
2018-07-27T01:09:32.376Z,7.90
2018-07-27T01:10:32.565Z,6.60
2018-07-27T01:11:32.754Z,8.60
2018-07-27T01:12:32.930Z,6.80
2018-07-27T01:13:33.115Z,7.50
2018-07-27T01:14:33.298Z,9.00
2018-07-27T01:15:33.488Z,7.60
2018-07-27T01:16:33.674Z,8.60
2018-07-27T01:17:33.861Z,7.00
2018-07-27T01:18:34.048Z,7.20
2018-07-27T01:19:34.240Z,7.80
2018-07-27T01:20:34.423Z,7.60
2018-07-27T01:21:34.609Z,7.70
2018-07-27T01:22:34.806Z,6.80
2018-07-27T01:23:34.983Z,7.40
2018-07-27T01:24:35.169Z,7.10
2018-07-27T01:25:35.352Z,8.70
2018-07-27T01:26:35.547Z,7.30
2018-07-27T01:27:35.724Z,7.30
2018-07-27T01:28:35.904Z,8.60
2018-07-27T01:29:36.090Z,7.40
2018-07-27T01:30:36.271Z,8.00
2018-07-27T01:31:36.477Z,7.30
2018-07-27T01:32:36.670Z,8.20
2018-07-27T01:33:36.835Z,7.50
2018-07-27T01:34:37.023Z,7.00
2018-07-27T01:35:37.214Z,6.90
2018-07-27T01:36:37.396Z,8.30
2018-07-27T01:37:37.580Z,7.90
2018-07-27T01:38:37.758Z,9.60
2018-07-27T01:39:37.942Z,7.70
2018-07-27T01:40:38.136Z,7.80
2018-07-27T01:41:38.323Z,7.50
2018-07-27T01:42:38.505Z,8.60
2018-07-27T01:43:38.694Z,9.90
2018-07-27T01:44:38.877Z,7.40
2018-07-27T01:45:39.063Z,6.90
2018-07-27T01:46:39.247Z,6.90
2018-07-27T01:47:39.444Z,7.80
2018-07-27T01:48:39.616Z,7.70
2018-07-27T01:49:39.812Z,7.20
2018-07-27T01:50:39.993Z,6.70
2018-07-27T01:51:40.193Z,8.90
2018-07-27T01:52:40.363Z,10.20
2018-07-27T01:53:40.547Z,8.10
2018-07-27T01:54:40.738Z,7.40
2018-07-27T01:55:40.931Z,8.90
2018-07-27T01:56:41.106Z,8.30
2018-07-27T01:57:41.289Z,8.40
2018-07-27T01:58:41.483Z,7.50
2018-07-27T01:59:41.654Z,7.50
2018-07-27T02:00:41.827Z,7.90
2018-07-27T02:01:42.015Z,6.80
2018-07-27T02:02:42.202Z,7.40
2018-07-27T02:03:42.389Z,8.50
2018-07-27T02:04:42.567Z,9.20
2018-07-27T02:05:42.748Z,7.90
2018-07-27T02:06:42.935Z,8.30
2018-07-27T02:07:43.123Z,7.00
2018-07-27T02:08:43.316Z,8.60
2018-07-27T02:09:43.492Z,7.30
2018-07-27T02:10:43.680Z,8.70
2018-07-27T02:11:43.868Z,7.60
2018-07-27T02:12:44.053Z,7.80
2018-07-27T02:13:44.239Z,6.90
2018-07-27T02:14:44.420Z,7.80
2018-07-27T02:15:44.626Z,8.00
2018-07-27T02:16:44.805Z,7.90
2018-07-27T02:17:44.981Z,9.10
2018-07-27T02:18:45.179Z,7.30
2018-07-27T02:19:45.351Z,7.50
2018-07-27T02:20:45.539Z,7.50
2018-07-27T02:21:46.353Z,6.60
2018-07-27T02:22:45.925Z,6.60
2018-07-27T02:23:46.098Z,6.90
2018-07-27T02:24:46.284Z,7.70
2018-07-27T02:25:46.481Z,10.20
2018-07-27T02:26:46.672Z,8.30
2018-07-27T02:27:46.841Z,8.30
2018-07-27T02:28:47.031Z,8.10
2018-07-27T02:29:47.218Z,8.80
2018-07-27T02:30:47.390Z,8.50
2018-07-27T02:31:47.610Z,6.50
2018-07-27T02:32:47.775Z,7.80
2018-07-27T02:33:48.021Z,7.70
2018-07-27T02:34:48.133Z,7.10
2018-07-27T02:35:48.303Z,7.60
2018-07-27T02:36:49.361Z,7.70
2018-07-27T02:37:48.650Z,7.60
2018-07-27T02:38:48.839Z,7.60
2018-07-27T02:39:49.040Z,7.50
2018-07-27T02:40:49.221Z,9.40
2018-07-27T02:41:49.408Z,9.50
2018-07-27T02:42:49.610Z,9.30
2018-07-27T02:43:49.784Z,7.40
2018-07-27T02:44:49.965Z,8.90
2018-07-27T02:45:50.155Z,7.90
2018-07-27T02:46:50.577Z,8.70
2018-07-27T02:47:50.527Z,8.90
2018-07-27T02:48:50.708Z,9.20
2018-07-27T02:49:50.891Z,8.30
2018-07-27T02:50:51.069Z,9.00
2018-07-27T02:51:51.264Z,8.30
2018-07-27T02:52:51.433Z,7.60
2018-07-27T02:53:51.615Z,8.40
2018-07-27T02:54:51.802Z,9.90
2018-07-27T02:55:51.980Z,9.00
2018-07-27T02:57:52.349Z,8.00
2018-07-27T02:58:52.539Z,8.00
2018-07-27T02:59:52.729Z,8.20
2018-07-27T03:00:52.910Z,7.90
2018-07-27T03:01:53.087Z,8.70
2018-07-27T03:02:53.278Z,8.10
2018-07-27T03:03:53.460Z,8.60
2018-07-27T03:04:53.639Z,9.50
2018-07-27T03:05:53.831Z,8.20
2018-07-27T03:06:54.017Z,7.70
2018-07-27T03:07:54.195Z,9.40
2018-07-27T03:08:54.375Z,9.00
2018-07-27T03:09:54.562Z,8.50
2018-07-27T03:10:54.751Z,8.90
2018-07-27T03:11:54.931Z,8.80
2018-07-27T03:12:55.112Z,9.10
2018-07-27T03:13:55.292Z,8.40
2018-07-27T03:14:55.476Z,7.60
2018-07-27T03:15:55.669Z,8.20
2018-07-27T03:16:55.855Z,9.10
2018-07-27T03:17:56.028Z,10.10
2018-07-27T03:18:56.222Z,9.00
2018-07-27T03:19:56.408Z,7.60
2018-07-27T03:20:56.847Z,8.40
2018-07-27T03:21:56.771Z,8.80
2018-07-27T03:22:56.959Z,9.30
2018-07-27T03:23:57.161Z,8.40
2018-07-27T03:24:57.320Z,9.40
2018-07-27T03:25:57.514Z,9.80
2018-07-27T03:26:57.698Z,10.20
2018-07-27T03:27:57.892Z,10.70
2018-07-27T03:28:58.074Z,8.30
2018-07-27T03:29:58.260Z,8.30
2018-07-27T03:30:58.444Z,8.90
2018-07-27T03:31:58.644Z,8.20
2018-07-27T03:32:58.819Z,7.80
2018-07-27T03:33:59.006Z,8.70
2018-07-27T03:34:59.187Z,9.20
2018-07-27T03:35:59.428Z,9.40
2018-07-27T03:36:59.563Z,12.20
2018-07-27T03:37:59.746Z,8.50
2018-07-27T03:38:59.932Z,7.60
2018-07-27T03:40:00.130Z,8.10
2018-07-27T03:41:00.314Z,9.80
2018-07-27T03:42:00.512Z,8.30
2018-07-27T03:43:00.687Z,10.40
2018-07-27T03:44:00.864Z,8.20
2018-07-27T03:45:01.043Z,10.30
2018-07-27T03:46:01.236Z,9.10
2018-07-27T03:47:01.418Z,8.30
2018-07-27T03:48:01.604Z,8.70
2018-07-27T03:49:01.793Z,11.60
2018-07-27T03:50:01.977Z,9.50
2018-07-27T03:51:02.161Z,9.00
2018-07-27T03:52:02.368Z,10.40
2018-07-27T03:53:02.535Z,10.50
2018-07-27T03:54:02.709Z,8.90
2018-07-27T03:55:02.896Z,9.20
2018-07-27T03:56:03.081Z,9.40
2018-07-27T03:57:03.265Z,8.70
2018-07-27T03:58:03.462Z,8.90
2018-07-27T03:59:03.623Z,8.40
2018-07-27T04:00:03.819Z,10.30
2018-07-27T04:01:03.997Z,10.20
2018-07-27T04:02:04.177Z,9.50
2018-07-27T04:03:04.376Z,10.10
2018-07-27T04:04:04.562Z,9.00
2018-07-27T04:05:04.746Z,8.10
2018-07-27T04:06:04.931Z,8.70
2018-07-27T04:07:05.119Z,11.10
2018-07-27T04:08:05.297Z,10.30
2018-07-27T04:09:05.488Z,10.40
2018-07-27T04:10:05.664Z,10.00
2018-07-27T04:11:05.843Z,9.50
2018-07-27T04:12:06.033Z,9.20
2018-07-27T04:13:06.221Z,9.90
2018-07-27T04:14:06.401Z,9.10
2018-07-27T04:15:06.709Z,9.10
2018-07-27T04:16:06.769Z,9.20
2018-07-27T04:17:06.962Z,9.90
2018-07-27T04:18:07.145Z,9.50
2018-07-27T04:19:07.335Z,8.70
2018-07-27T04:20:07.516Z,7.80
2018-07-27T04:21:07.706Z,8.90
2018-07-27T04:22:07.886Z,8.90
2018-07-27T04:23:08.075Z,9.50
2018-07-27T04:24:08.254Z,10.30
2018-07-27T04:25:08.443Z,9.10
2018-07-27T04:26:08.628Z,8.00
2018-07-27T04:27:08.806Z,9.60
2018-07-27T04:28:08.977Z,8.30
2018-07-27T04:29:09.173Z,8.80
2018-07-27T04:30:09.362Z,9.80
2018-07-27T04:31:09.544Z,9.30
2018-07-27T04:32:09.729Z,8.80
2018-07-27T04:33:09.914Z,8.80
2018-07-27T04:34:10.113Z,9.20
2018-07-27T04:35:10.296Z,7.90
2018-07-27T04:36:10.486Z,7.60
2018-07-27T04:37:10.674Z,8.40
2018-07-27T04:38:10.863Z,8.20
2018-07-27T04:39:11.034Z,9.70
2018-07-27T04:40:11.213Z,7.50
2018-07-27T04:41:11.416Z,8.50
2018-07-27T04:42:11.599Z,9.10
2018-07-27T04:43:11.780Z,7.70
2018-07-27T04:44:12.212Z,7.30
2018-07-27T04:45:12.149Z,9.40
2018-07-27T04:46:12.338Z,8.20
2018-07-27T04:47:12.526Z,8.80
2018-07-27T04:48:12.706Z,7.60
2018-07-27T04:49:12.910Z,9.70
2018-07-27T04:50:13.089Z,6.40
2018-07-27T04:51:13.280Z,8.70
2018-07-27T04:52:13.468Z,8.60
2018-07-27T04:53:13.668Z,8.70
2018-07-27T04:54:13.848Z,6.90
2018-07-27T04:55:14.042Z,8.40
2018-07-27T04:56:14.259Z,7.90
2018-07-27T04:57:14.423Z,7.40
2018-07-27T04:58:14.619Z,8.30
2018-07-27T04:59:14.818Z,7.80
2018-07-27T05:00:15.000Z,7.50
2018-07-27T05:01:15.187Z,7.20
2018-07-27T05:02:15.377Z,8.20
2018-07-27T05:03:15.578Z,6.50
2018-07-27T05:04:15.773Z,6.60
2018-07-27T05:05:15.958Z,6.50
2018-07-27T05:06:16.143Z,8.50
2018-07-27T05:07:16.339Z,7.90
2018-07-27T05:08:16.528Z,7.60
2018-07-27T05:09:16.729Z,7.10
2018-07-27T05:10:16.905Z,6.70
2018-07-27T05:11:17.102Z,6.40
2018-07-27T05:12:17.289Z,7.60
2018-07-27T05:13:17.487Z,6.80
2018-07-27T05:14:17.681Z,7.50
2018-07-27T05:15:17.862Z,7.10
2018-07-27T05:16:18.054Z,7.20
2018-07-27T05:17:18.273Z,9.60
2018-07-27T05:18:18.516Z,7.10
2018-07-27T05:19:18.640Z,6.10
2018-07-27T05:20:18.834Z,6.60
2018-07-27T05:21:19.028Z,8.60
2018-07-27T05:22:19.213Z,7.00
2018-07-27T05:23:19.406Z,7.40
2018-07-27T05:24:19.603Z,7.70
2018-07-27T05:25:19.798Z,6.10
2018-07-27T05:26:19.990Z,7.00
2018-07-27T05:27:20.186Z,8.00
2018-07-27T05:28:20.377Z,6.00
2018-07-27T05:29:20.573Z,6.00
2018-07-27T05:30:20.764Z,7.00
2018-07-27T05:31:20.959Z,6.10
2018-07-27T05:32:21.160Z,5.70
2018-07-27T05:33:21.353Z,8.80
2018-07-27T05:34:21.607Z,6.00
2018-07-27T05:35:21.744Z,6.10
2018-07-27T05:36:21.935Z,6.00
2018-07-27T05:37:22.379Z,6.10
2018-07-27T05:38:22.333Z,6.10
2018-07-27T05:39:22.528Z,6.10
2018-07-27T05:40:22.722Z,8.50
2018-07-27T05:41:22.959Z,6.40
2018-07-27T05:42:23.098Z,6.90
2018-07-27T05:43:23.289Z,7.90
2018-07-27T05:44:23.478Z,6.50
2018-07-27T05:45:23.673Z,6.20
2018-07-27T05:46:23.873Z,6.40
2018-07-27T05:47:24.077Z,6.30
2018-07-27T05:48:24.259Z,7.60
2018-07-27T05:49:24.450Z,7.50
2018-07-27T05:50:24.643Z,7.90
2018-07-27T05:51:24.837Z,6.40
2018-07-27T05:52:25.040Z,8.10
2018-07-27T05:53:25.231Z,8.10
2018-07-27T05:54:25.427Z,5.70
2018-07-27T05:55:25.623Z,5.50
2018-07-27T05:56:25.825Z,7.30
2018-07-27T05:57:26.021Z,6.40
2018-07-27T05:58:26.235Z,5.80
2018-07-27T05:59:26.425Z,5.90
2018-07-27T06:00:26.611Z,6.50
2018-07-27T06:01:26.798Z,7.60
2018-07-27T06:02:26.995Z,8.30
2018-07-27T06:03:27.187Z,7.90
2018-07-27T06:04:27.392Z,6.50
2018-07-27T06:05:27.587Z,7.00
2018-07-27T06:06:27.779Z,6.50
2018-07-27T06:07:27.985Z,6.90
2018-07-27T06:08:28.183Z,6.20
2018-07-27T06:09:28.388Z,5.80
2018-07-27T06:10:28.571Z,6.00
2018-07-27T06:11:28.769Z,6.20
2018-07-27T06:12:28.976Z,6.90
2018-07-27T06:13:29.168Z,6.40
2018-07-27T06:14:29.375Z,6.20
2018-07-27T06:15:29.562Z,6.30
2018-07-27T06:16:29.766Z,5.90
2018-07-27T06:17:29.953Z,5.80
2018-07-27T06:18:30.153Z,6.00
2018-07-27T06:19:30.344Z,7.50
2018-07-27T06:20:30.536Z,6.20
2018-07-27T06:21:30.734Z,6.70
2018-07-27T06:22:30.927Z,6.70
2018-07-27T06:23:31.134Z,6.30
2018-07-27T06:24:31.341Z,8.20
2018-07-27T06:25:31.527Z,6.10
2018-07-27T06:26:31.736Z,8.00
2018-07-27T06:27:32.167Z,6.10
2018-07-27T06:28:32.115Z,6.10
2018-07-27T06:29:32.306Z,6.80
2018-07-27T06:30:32.501Z,6.00
2018-07-27T06:31:32.698Z,6.20
2018-07-27T06:32:32.901Z,6.50
2018-07-27T06:33:33.091Z,7.60
2018-07-27T06:34:33.292Z,5.70
2018-07-27T06:35:33.485Z,5.80
2018-07-27T06:36:33.672Z,6.90
2018-07-27T06:37:33.954Z,7.40
2018-07-27T06:38:34.872Z,8.10
2018-07-27T06:39:34.258Z,6.80
2018-07-27T06:40:34.458Z,5.50
2018-07-27T06:42:34.851Z,5.70
2018-07-27T06:43:35.063Z,5.50
2018-07-27T06:44:35.250Z,6.30
2018-07-27T06:45:35.441Z,5.70
2018-07-27T06:46:35.642Z,6.00
2018-07-27T06:47:35.828Z,6.70
2018-07-27T06:48:36.024Z,5.50
2018-07-27T06:49:36.197Z,5.90
2018-07-27T06:50:36.403Z,5.70
2018-07-27T06:51:36.596Z,6.30
2018-07-27T06:52:36.792Z,6.00
2018-07-27T06:53:36.989Z,7.40
2018-07-27T06:54:37.168Z,5.50
2018-07-27T06:55:37.370Z,5.90
2018-07-27T06:56:37.599Z,6.80
2018-07-27T06:57:37.796Z,6.10
2018-07-27T06:58:37.996Z,6.00
2018-07-27T06:59:38.192Z,7.10
2018-07-27T07:00:38.405Z,6.40
2018-07-27T07:01:38.570Z,6.70
2018-07-27T07:02:38.749Z,5.90
2018-07-27T07:03:38.955Z,5.20
2018-07-27T07:04:39.157Z,5.70
2018-07-27T07:05:39.326Z,5.80
2018-07-27T07:06:39.544Z,5.60
2018-07-27T07:07:39.755Z,5.50
2018-07-27T07:08:40.488Z,6.30
2018-07-27T07:09:40.172Z,5.60
2018-07-27T07:10:40.341Z,6.80
2018-07-27T07:11:40.499Z,6.00
2018-07-27T07:12:40.698Z,5.60
2018-07-27T07:13:40.897Z,6.60
2018-07-27T07:14:41.078Z,5.50
2018-07-27T07:15:41.289Z,6.20
2018-07-27T07:16:41.503Z,5.80
2018-07-27T07:17:41.705Z,8.00
2018-07-27T07:18:41.894Z,7.90
2018-07-27T07:19:42.086Z,7.20
2018-07-27T07:20:42.279Z,6.00
2018-07-27T07:21:42.463Z,7.80
2018-07-27T07:22:42.660Z,6.70
2018-07-27T07:23:42.846Z,5.60
2018-07-27T07:24:43.032Z,5.70
2018-07-27T07:25:43.517Z,5.40
2018-07-27T07:26:43.445Z,5.20
2018-07-27T07:27:43.617Z,5.10
2018-07-27T07:28:43.810Z,5.10
2018-07-27T07:29:44.000Z,5.20
2018-07-27T07:30:44.198Z,5.50
2018-07-27T07:31:44.398Z,5.30
2018-07-27T07:32:44.590Z,8.80
2018-07-27T07:33:44.780Z,7.10
2018-07-27T07:34:44.978Z,5.40
2018-07-27T07:35:45.172Z,5.70
2018-07-27T07:36:45.370Z,5.20
2018-07-27T07:37:45.548Z,5.10
2018-07-27T07:38:45.758Z,5.60
2018-07-27T07:39:45.950Z,5.70
2018-07-27T07:40:46.157Z,5.50
2018-07-27T07:41:46.345Z,6.60
2018-07-27T07:42:46.781Z,5.80
2018-07-27T07:43:46.790Z,5.50
2018-07-27T07:44:46.901Z,5.10
2018-07-27T07:45:47.089Z,5.60
2018-07-27T07:46:47.279Z,5.40
2018-07-27T07:47:47.468Z,5.80
2018-07-27T07:48:47.661Z,6.10
2018-07-27T07:49:48.105Z,6.60
2018-07-27T07:50:48.036Z,5.20
2018-07-27T07:51:48.235Z,7.70
2018-07-27T07:52:48.422Z,5.70
2018-07-27T07:53:48.595Z,4.80
2018-07-27T07:54:48.773Z,5.40
2018-07-27T07:55:48.954Z,6.60
2018-07-27T07:56:49.151Z,5.30
2018-07-27T07:57:49.322Z,6.50
2018-07-27T07:58:49.501Z,5.20
2018-07-27T07:59:49.688Z,5.60
2018-07-27T08:00:49.877Z,5.20
2018-07-27T08:01:50.053Z,5.20
2018-07-27T08:02:50.244Z,6.10
2018-07-27T08:03:50.444Z,5.70
2018-07-27T08:04:50.629Z,5.10
2018-07-27T08:05:50.815Z,5.20
2018-07-27T08:06:50.999Z,6.80
2018-07-27T08:07:51.186Z,5.50
2018-07-27T08:08:51.387Z,5.10
2018-07-27T08:09:51.569Z,5.30
2018-07-27T08:10:51.759Z,5.50
2018-07-27T08:11:51.944Z,6.90
2018-07-27T08:12:52.154Z,5.10
2018-07-27T08:13:52.408Z,4.90
2018-07-27T08:14:52.521Z,5.20
2018-07-27T08:15:52.698Z,4.60
2018-07-27T08:16:52.928Z,5.60
2018-07-27T08:17:53.131Z,4.80
2018-07-27T08:18:53.308Z,5.70
2018-07-27T08:19:53.499Z,5.50
2018-07-27T08:20:53.692Z,5.30
2018-07-27T08:21:53.889Z,5.40
2018-07-27T08:22:54.106Z,5.00
2018-07-27T08:23:54.279Z,4.90
2018-07-27T08:24:54.827Z,5.30
2018-07-27T08:25:54.713Z,5.40
2018-07-27T08:26:54.835Z,4.80
2018-07-27T08:27:55.032Z,6.20
2018-07-27T08:28:55.234Z,5.40
2018-07-27T08:29:55.430Z,5.10
2018-07-27T08:30:55.612Z,6.90
2018-07-27T08:31:55.799Z,5.20
2018-07-27T08:32:55.979Z,6.40
2018-07-27T08:33:56.164Z,6.20
2018-07-27T08:34:56.390Z,4.80
2018-07-27T08:35:56.636Z,5.20
2018-07-27T08:36:56.835Z,5.70
2018-07-27T08:37:57.041Z,4.90
2018-07-27T08:38:57.184Z,4.70
2018-07-27T08:39:57.370Z,4.70
2018-07-27T08:40:57.562Z,5.00
2018-07-27T08:41:57.742Z,4.60
2018-07-27T08:42:57.940Z,4.80
2018-07-27T08:43:58.121Z,5.60
2018-07-27T08:44:58.325Z,4.60
2018-07-27T08:45:58.538Z,4.60
2018-07-27T08:46:58.701Z,4.30
2018-07-27T08:47:58.913Z,4.30
2018-07-27T08:48:59.101Z,4.20
2018-07-27T08:49:59.365Z,4.10
2018-07-27T08:50:59.500Z,4.80
2018-07-27T08:51:59.704Z,4.00
2018-07-27T08:52:59.885Z,3.70
2018-07-27T08:54:00.066Z,4.10
2018-07-27T08:55:00.252Z,4.70
2018-07-27T08:56:00.441Z,5.20
2018-07-27T08:57:00.645Z,4.00
2018-07-27T08:58:00.852Z,5.00
2018-07-27T08:59:01.030Z,4.30
2018-07-27T09:00:01.253Z,4.00
2018-07-27T09:01:01.389Z,4.00
2018-07-27T09:02:01.570Z,5.40
2018-07-27T09:03:01.763Z,5.30
2018-07-27T09:04:02.047Z,4.30
2018-07-27T09:05:02.174Z,5.50
2018-07-27T09:06:02.354Z,4.30
2018-07-27T09:07:02.529Z,5.30
2018-07-27T09:08:02.726Z,5.20
2018-07-27T09:09:02.919Z,4.70
2018-07-27T09:10:03.094Z,4.00
2018-07-27T09:11:03.310Z,4.50
2018-07-27T09:12:03.504Z,4.70
2018-07-27T09:13:03.687Z,4.80
2018-07-27T09:14:03.862Z,4.70
2018-07-27T09:15:04.039Z,5.10
2018-07-27T09:16:04.252Z,5.10
2018-07-27T09:17:04.440Z,4.70
2018-07-27T09:18:04.638Z,4.60
2018-07-27T09:19:04.804Z,4.20
2018-07-27T09:20:05.008Z,4.70
2018-07-27T09:21:05.191Z,5.30
2018-07-27T09:22:05.354Z,4.50
2018-07-27T09:23:05.540Z,4.60
2018-07-27T09:24:05.728Z,7.10
2018-07-27T09:25:06.077Z,4.90
2018-07-27T09:26:06.087Z,5.80
2018-07-27T09:27:06.276Z,5.30
2018-07-27T09:28:06.727Z,5.80
2018-07-27T09:29:06.651Z,4.80
2018-07-27T09:30:06.851Z,4.30
2018-07-27T09:31:07.070Z,5.50
2018-07-27T09:32:07.225Z,5.00
2018-07-27T09:33:07.428Z,8.40
2018-07-27T09:34:07.656Z,5.20
2018-07-27T09:35:07.887Z,5.20
2018-07-27T09:36:07.989Z,4.50
2018-07-27T09:37:08.184Z,5.20
2018-07-27T09:38:08.383Z,5.40
2018-07-27T09:39:08.580Z,4.70
2018-07-27T09:40:08.768Z,5.30
2018-07-27T09:41:08.969Z,5.00
2018-07-27T09:42:09.155Z,4.90
2018-07-27T09:43:09.347Z,4.40
2018-07-27T09:44:09.541Z,4.70
2018-07-27T09:45:09.735Z,4.70
2018-07-27T09:46:09.965Z,4.40
2018-07-27T09:47:10.168Z,5.60
2018-07-27T09:48:10.324Z,5.60
2018-07-27T09:49:10.522Z,5.80
2018-07-27T09:50:10.695Z,5.20
2018-07-27T09:51:10.894Z,12.30
2018-07-27T09:52:11.059Z,13.10
2018-07-27T09:53:11.259Z,9.90
2018-07-27T09:54:11.459Z,7.40
2018-07-27T09:55:11.615Z,4.90
2018-07-27T09:56:11.795Z,5.40
2018-07-27T09:57:11.971Z,5.70
2018-07-27T09:58:12.178Z,5.50
2018-07-27T09:59:12.367Z,6.60
2018-07-27T10:00:12.541Z,5.50
2018-07-27T10:01:12.731Z,7.30
2018-07-27T10:02:12.956Z,5.20
2018-07-27T10:03:13.118Z,4.40
2018-07-27T10:04:13.325Z,3.90
2018-07-27T10:05:13.526Z,5.50
2018-07-27T10:06:13.704Z,4.80
2018-07-27T10:07:13.892Z,6.10
2018-07-27T10:08:14.073Z,5.40
2018-07-27T10:09:14.260Z,4.50
2018-07-27T10:10:14.464Z,4.10
2018-07-27T10:11:14.613Z,6.40
2018-07-27T10:12:14.798Z,4.70
2018-07-27T10:13:14.981Z,4.80
2018-07-27T10:14:15.155Z,4.70
2018-07-27T10:15:15.360Z,4.30
2018-07-27T10:16:15.526Z,4.30
2018-07-27T10:17:15.720Z,4.70
2018-07-27T10:18:15.891Z,5.40
2018-07-27T10:19:16.064Z,5.20
2018-07-27T10:20:16.253Z,4.40
2018-07-27T10:21:16.410Z,4.30
2018-07-27T10:22:16.597Z,4.50
2018-07-27T10:23:16.791Z,6.70
2018-07-27T10:24:16.974Z,6.10
2018-07-27T10:25:17.167Z,3.70
2018-07-27T10:26:17.370Z,4.50
2018-07-27T10:27:17.571Z,4.80
2018-07-27T10:28:17.808Z,4.20
2018-07-27T10:29:17.940Z,7.50
2018-07-27T10:30:18.113Z,4.60
2018-07-27T10:31:18.289Z,19.50
2018-07-27T10:32:18.490Z,6.80
2018-07-27T10:33:18.658Z,5.90
2018-07-27T10:34:18.848Z,4.70
2018-07-27T10:35:19.029Z,5.00
2018-07-27T10:36:19.215Z,4.10
2018-07-27T10:37:19.385Z,4.50
2018-07-27T10:38:19.578Z,3.80
2018-07-27T10:39:19.754Z,4.80
2018-07-27T10:40:19.955Z,3.90
2018-07-27T10:42:20.317Z,3.60
2018-07-27T10:43:20.516Z,3.90
2018-07-27T10:44:20.681Z,4.50
2018-07-27T10:45:20.897Z,5.00
2018-07-27T10:46:21.065Z,3.80
2018-07-27T10:47:21.258Z,3.80
2018-07-27T10:48:21.448Z,4.00
2018-07-27T10:49:21.632Z,5.30
2018-07-27T10:50:21.828Z,3.70
2018-07-27T10:51:22.011Z,3.50
2018-07-27T10:52:22.188Z,4.60
2018-07-27T10:53:22.384Z,4.10
2018-07-27T10:54:22.575Z,4.90
2018-07-27T10:55:22.755Z,3.90
2018-07-27T10:56:22.993Z,6.10
2018-07-27T10:57:23.116Z,5.00
2018-07-27T10:58:23.298Z,4.90
2018-07-27T10:59:23.490Z,4.60
2018-07-27T11:00:23.690Z,5.20
2018-07-27T11:01:23.873Z,4.70
2018-07-27T11:02:24.632Z,4.70
2018-07-27T11:03:24.270Z,8.30
2018-07-27T11:04:24.444Z,13.60
2018-07-27T11:05:24.623Z,11.20
2018-07-27T11:06:24.801Z,4.80
2018-07-27T11:07:24.991Z,6.00
2018-07-27T11:08:25.179Z,6.20
2018-07-27T11:09:25.366Z,4.70
2018-07-27T11:10:25.560Z,4.80
2018-07-27T11:11:25.757Z,4.00
2018-07-27T11:12:25.905Z,5.50
2018-07-27T11:13:26.080Z,3.60
2018-07-27T11:14:26.253Z,3.90
2018-07-27T11:15:26.458Z,4.90
2018-07-27T11:16:26.674Z,5.40
2018-07-27T11:17:26.961Z,5.50
2018-07-27T11:18:26.997Z,4.80
2018-07-27T11:19:27.177Z,5.30
2018-07-27T11:20:27.361Z,3.80
2018-07-27T11:21:27.569Z,5.40
2018-07-27T11:22:27.743Z,6.30
2018-07-27T11:23:27.914Z,5.30
2018-07-27T11:24:28.098Z,9.10
2018-07-27T11:25:28.282Z,3.90
2018-07-27T11:26:28.454Z,4.30
2018-07-27T11:27:28.647Z,6.00
2018-07-27T11:28:28.838Z,4.80
2018-07-27T11:29:29.018Z,4.80
2018-07-27T11:30:29.206Z,4.10
2018-07-27T11:31:29.373Z,4.70
2018-07-27T11:32:29.562Z,5.80
2018-07-27T11:33:29.751Z,5.20
2018-07-27T11:34:29.949Z,7.90
2018-07-27T11:35:30.122Z,7.90
2018-07-27T11:37:30.601Z,8.70
2018-07-27T11:38:30.683Z,7.40
2018-07-27T11:39:30.872Z,4.50
2018-07-27T11:40:31.064Z,4.00
2018-07-27T11:41:31.248Z,4.50
2018-07-27T11:42:31.447Z,5.10
2018-07-27T11:43:31.642Z,3.90
2018-07-27T11:44:31.805Z,4.40
2018-07-27T11:45:32.037Z,5.50
2018-07-27T11:46:32.214Z,5.30
2018-07-27T11:47:32.412Z,7.20
2018-07-27T11:48:32.605Z,4.70
2018-07-27T11:49:32.800Z,5.30
2018-07-27T11:50:32.966Z,4.10
2018-07-27T11:51:33.133Z,4.30
2018-07-27T11:52:33.324Z,3.90
2018-07-27T11:53:33.512Z,3.90
2018-07-27T11:54:33.727Z,5.30
2018-07-27T11:55:33.870Z,5.80
2018-07-27T11:56:34.044Z,3.50
2018-07-27T11:57:34.228Z,4.00
2018-07-27T11:58:34.412Z,4.70
2018-07-27T11:59:34.584Z,3.90
2018-07-27T12:00:34.778Z,4.30
2018-07-27T12:01:35.015Z,6.80
2018-07-27T12:02:35.138Z,5.20
2018-07-27T12:03:35.332Z,4.70
2018-07-27T12:04:35.518Z,5.60
2018-07-27T12:05:35.707Z,5.10
2018-07-27T12:06:35.904Z,3.60
2018-07-27T12:07:36.071Z,4.60
2018-07-27T12:08:36.260Z,4.10
2018-07-27T12:09:36.451Z,4.60
2018-07-27T12:10:36.642Z,5.90
2018-07-27T12:11:36.856Z,4.20
2018-07-27T12:12:37.026Z,4.80
2018-07-27T12:13:37.213Z,4.40
2018-07-27T12:14:37.518Z,4.10
2018-07-27T12:15:37.577Z,4.50
2018-07-27T12:16:37.766Z,8.40
2018-07-27T12:17:37.941Z,5.50
2018-07-27T12:18:38.138Z,6.30
2018-07-27T12:19:38.311Z,5.90
2018-07-27T12:20:38.558Z,6.00
2018-07-27T12:21:38.965Z,5.50
2018-07-27T12:22:38.860Z,5.00
2018-07-27T12:23:39.046Z,5.00
2018-07-27T12:24:39.254Z,4.40
2018-07-27T12:25:39.394Z,5.00
2018-07-27T12:26:40.027Z,4.60
2018-07-27T12:27:39.745Z,5.30
2018-07-27T12:28:39.919Z,4.90
2018-07-27T12:29:40.098Z,5.50
2018-07-27T12:30:40.302Z,6.20
2018-07-27T12:31:40.721Z,6.30
2018-07-27T12:32:40.692Z,4.90
2018-07-27T12:33:40.847Z,4.10
2018-07-27T12:34:41.033Z,3.40
2018-07-27T12:35:41.213Z,4.20
2018-07-27T12:36:41.394Z,4.10
2018-07-27T12:37:41.593Z,3.90
2018-07-27T12:38:41.757Z,3.50
2018-07-27T12:39:41.939Z,5.40
2018-07-27T12:40:42.135Z,4.10
2018-07-27T12:41:42.314Z,3.60
2018-07-27T12:42:42.589Z,4.40
2018-07-27T12:43:42.674Z,4.30
2018-07-27T12:44:42.869Z,4.60
2018-07-27T12:45:43.052Z,5.30
2018-07-27T12:46:43.236Z,3.70
2018-07-27T12:47:43.416Z,4.50
2018-07-27T12:48:43.619Z,9.50
2018-07-27T12:49:43.805Z,5.00
2018-07-27T12:50:43.990Z,4.90
2018-07-27T12:51:44.188Z,4.50
2018-07-27T12:52:44.609Z,4.00
2018-07-27T12:53:44.574Z,4.00
2018-07-27T12:54:44.763Z,3.90
2018-07-27T12:55:44.931Z,3.80
2018-07-27T12:56:45.114Z,3.30
2018-07-27T12:57:45.302Z,3.30
2018-07-27T12:58:45.467Z,4.80
2018-07-27T12:59:45.673Z,4.60
2018-07-27T13:00:45.886Z,3.80
2018-07-27T13:01:46.076Z,4.20
2018-07-27T13:02:46.258Z,4.80
2018-07-27T13:03:46.442Z,3.90
2018-07-27T13:04:46.628Z,5.80
2018-07-27T13:05:46.823Z,3.90
2018-07-27T13:06:47.038Z,4.20
2018-07-27T13:07:47.220Z,4.40
2018-07-27T13:08:47.402Z,7.40
2018-07-27T13:09:47.592Z,5.20
2018-07-27T13:10:47.874Z,4.00
2018-07-27T13:11:48.000Z,4.70
2018-07-27T13:12:48.164Z,4.60
2018-07-27T13:13:48.364Z,4.50
2018-07-27T13:14:48.581Z,4.20
2018-07-27T13:15:48.732Z,5.20
2018-07-27T13:16:48.924Z,4.20
2018-07-27T13:17:49.086Z,5.80
2018-07-27T13:18:49.304Z,4.60
2018-07-27T13:19:49.503Z,6.40
2018-07-27T13:20:49.694Z,4.20
2018-07-27T13:21:50.648Z,5.40
2018-07-27T13:22:50.121Z,5.10
2018-07-27T13:23:50.332Z,6.40
2018-07-27T13:24:57.515Z,5.90